Time;durP1;ratioP1;P1;durP2;ratioP2;P2;SDS_P1;SDS_P2;PMS_P1;PMS_P2;Temp;Humidity;BMP_temperature;BMP_pressure;BME280_temperature;BME280_humidity;BME280_pressure;Samples;Min_cycle;Max_cycle;Signal;HPM_P1;HPM_P2
2020/12/22 00:00:17;;;;;;;0.60;0.60;;;10.40;99.90;;;;;;5097059;28;20028;-69
2020/12/22 00:02:44;;;;;;;1.25;0.80;;;10.50;99.90;;;;;;5096993;28;20353;-68
2020/12/22 00:05:12;;;;;;;2.53;1.35;;;10.50;99.90;;;;;;5096959;28;20020;-68
2020/12/22 00:07:39;;;;;;;1.55;0.80;;;10.50;99.90;;;;;;5096644;28;20108;-68
2020/12/22 00:10:06;;;;;;;0.60;0.60;;;10.60;99.90;;;;;;5096331;28;20027;-68
2020/12/22 00:12:32;;;;;;;1.63;0.98;;;10.50;99.90;;;;;;5096541;28;20024;-68
2020/12/22 00:14:59;;;;;;;1.95;0.80;;;10.60;99.90;;;;;;5096801;28;20028;-69
2020/12/22 00:17:25;;;;;;;1.17;0.85;;;10.50;99.90;;;;;;5096440;28;20034;-68
2020/12/22 00:19:50;;;;;;;1.20;0.80;;;10.60;99.90;;;;;;5096604;28;20016;-68
2020/12/22 00:22:16;;;;;;;1.25;1.00;;;10.60;99.90;;;;;;5096078;28;20032;-68
2020/12/22 00:24:41;;;;;;;1.35;0.70;;;10.60;99.90;;;;;;5096354;28;20472;-69
2020/12/22 00:27:07;;;;;;;0.98;0.90;;;10.70;99.90;;;;;;5095073;28;20020;-68
2020/12/22 00:29:33;;;;;;;0.90;0.88;;;10.60;99.90;;;;;;5096519;28;20035;-69
2020/12/22 00:32:02;;;;;;;2.63;1.00;;;10.70;99.90;;;;;;5096150;28;20027;-68
2020/12/22 00:34:29;;;;;;;3.15;1.38;;;10.70;99.90;;;;;;5096431;28;20380;-68
2020/12/22 00:36:54;;;;;;;4.35;1.40;;;10.80;99.90;;;;;;5096063;28;20455;-68
2020/12/22 00:39:20;;;;;;;2.22;1.65;;;10.80;99.90;;;;;;5095569;28;20123;-68
2020/12/22 00:41:50;;;;;;;1.98;1.67;;;10.80;99.90;;;;;;5096239;28;20130;-68
2020/12/22 00:44:16;;;;;;;5.40;2.53;;;10.90;99.90;;;;;;5096145;28;20020;-68
2020/12/22 00:46:41;;;;;;;1.90;1.38;;;10.90;99.90;;;;;;5095884;28;20016;-68
2020/12/22 00:49:08;;;;;;;2.13;1.52;;;11.00;99.90;;;;;;5095541;28;20099;-68
2020/12/22 00:51:33;;;;;;;6.45;1.55;;;11.00;99.90;;;;;;5095786;28;20027;-68
2020/12/22 00:53:59;;;;;;;3.40;1.90;;;11.10;99.90;;;;;;5095998;28;20525;-68
2020/12/22 00:56:24;;;;;;;1.80;1.55;;;11.10;99.90;;;;;;5095647;28;20464;-68
2020/12/22 00:58:50;;;;;;;2.38;1.80;;;11.20;99.90;;;;;;5095870;28;20070;-68
2020/12/22 01:01:15;;;;;;;1.75;1.65;;;11.30;99.90;;;;;;5095860;28;20034;-68
2020/12/22 01:03:41;;;;;;;2.88;2.42;;;11.30;99.90;;;;;;5095840;28;20056;-68
2020/12/22 01:06:06;;;;;;;2.63;2.20;;;11.40;99.90;;;;;;5095509;28;20022;-68
2020/12/22 01:08:32;;;;;;;2.60;1.90;;;11.50;99.90;;;;;;5095751;28;20036;-68
2020/12/22 01:10:59;;;;;;;5.07;2.05;;;11.40;99.90;;;;;;5095695;28;20053;-68
2020/12/22 01:13:24;;;;;;;6.07;3.53;;;11.50;99.90;;;;;;5094185;28;20535;-68
2020/12/22 01:15:50;;;;;;;2.13;1.92;;;11.50;99.90;;;;;;5095603;28;20101;-68
2020/12/22 01:18:15;;;;;;;6.30;2.67;;;11.60;99.90;;;;;;5095481;28;20384;-68
2020/12/22 01:20:41;;;;;;;1.52;1.42;;;11.60;99.90;;;;;;5095265;28;20461;-68
2020/12/22 01:23:06;;;;;;;2.70;1.45;;;11.90;99.90;;;;;;5095465;28;20461;-69
2020/12/22 01:25:32;;;;;;;3.97;1.40;;;11.70;99.90;;;;;;5095166;28;20048;-68
2020/12/22 01:27:58;;;;;;;4.50;2.08;;;11.80;99.90;;;;;;5095099;28;20024;-68
2020/12/22 01:30:23;;;;;;;2.15;1.85;;;11.70;99.90;;;;;;5095267;28;20055;-68
2020/12/22 01:32:50;;;;;;;2.00;1.50;;;11.80;99.90;;;;;;5094693;28;20385;-68
2020/12/22 01:35:15;;;;;;;2.80;1.63;;;11.70;99.90;;;;;;5094202;28;20097;-68
2020/12/22 01:37:41;;;;;;;4.18;1.85;;;11.70;99.90;;;;;;5094892;28;20048;-68
2020/12/22 01:40:07;;;;;;;2.38;2.00;;;11.70;99.90;;;;;;5094741;28;20081;-68
2020/12/22 01:42:32;;;;;;;2.40;2.20;;;11.80;99.90;;;;;;5094475;28;20020;-68
2020/12/22 01:44:58;;;;;;;3.95;2.25;;;11.80;99.90;;;;;;5094093;28;20052;-68
2020/12/22 01:47:24;;;;;;;2.45;2.20;;;11.80;99.90;;;;;;5094978;28;20365;-68
2020/12/22 01:49:50;;;;;;;2.63;2.42;;;12.00;99.90;;;;;;5094701;28;20487;-68
2020/12/22 01:52:16;;;;;;;2.40;2.20;;;12.00;99.90;;;;;;5094895;28;20036;-68
2020/12/22 01:54:41;;;;;;;2.40;2.20;;;12.00;99.90;;;;;;5094317;28;20097;-68
2020/12/22 01:57:11;;;;;;;4.40;2.67;;;12.00;99.90;;;;;;5094533;28;20024;-68
2020/12/22 01:59:37;;;;;;;3.08;2.22;;;12.00;99.90;;;;;;5094433;28;20021;-68
2020/12/22 02:02:03;;;;;;;3.03;2.50;;;12.00;99.90;;;;;;5093609;28;20016;-68
2020/12/22 02:04:29;;;;;;;3.20;2.92;;;12.10;99.90;;;;;;5093270;28;20496;-68
2020/12/22 02:06:56;;;;;;;4.72;2.70;;;12.00;99.90;;;;;;5094376;28;20047;-68
2020/12/22 02:09:21;;;;;;;4.93;3.03;;;12.00;99.90;;;;;;5094378;28;20020;-68
2020/12/22 02:11:47;;;;;;;4.05;2.88;;;12.00;99.90;;;;;;5094589;28;20024;-68
2020/12/22 02:14:12;;;;;;;2.90;2.70;;;12.00;99.90;;;;;;5094558;28;20111;-68
2020/12/22 02:16:39;;;;;;;2.60;2.40;;;12.00;99.90;;;;;;5094539;28;20112;-68
2020/12/22 02:19:04;;;;;;;3.08;2.40;;;11.90;99.90;;;;;;5094442;28;20310;-68
2020/12/22 02:21:30;;;;;;;3.13;2.83;;;11.90;99.90;;;;;;5094510;28;20074;-68
2020/12/22 02:23:56;;;;;;;5.22;2.70;;;11.90;99.90;;;;;;5092644;28;20031;-68
2020/12/22 02:26:23;;;;;;;3.97;2.80;;;12.00;99.90;;;;;;5094421;28;20043;-68
2020/12/22 02:28:51;;;;;;;2.90;2.58;;;11.90;99.90;;;;;;5094067;28;20031;-68
2020/12/22 02:31:17;;;;;;;2.60;2.40;;;11.90;99.90;;;;;;5092914;28;20035;-68
2020/12/22 02:33:43;;;;;;;2.83;2.63;;;11.90;99.90;;;;;;5094319;28;20069;-68
2020/12/22 02:36:10;;;;;;;4.10;2.53;;;12.00;99.90;;;;;;5094212;28;20024;-68
2020/12/22 02:38:36;;;;;;;2.70;2.50;;;12.00;99.90;;;;;;5093433;28;20546;-68
2020/12/22 02:41:02;;;;;;;3.15;2.60;;;12.00;99.90;;;;;;5092364;28;20028;-68
2020/12/22 02:43:28;;;;;;;4.70;2.50;;;12.10;99.90;;;;;;5094163;28;20027;-68
2020/12/22 02:45:53;;;;;;;2.67;2.47;;;12.10;99.90;;;;;;5094172;28;20055;-68
2020/12/22 02:48:19;;;;;;;3.42;2.47;;;12.10;99.90;;;;;;5092837;28;20028;-68
2020/12/22 02:50:44;;;;;;;3.13;2.83;;;12.20;99.90;;;;;;5093089;28;20032;-68
2020/12/22 02:53:10;;;;;;;3.03;2.72;;;12.20;99.90;;;;;;5094068;28;20054;-68
2020/12/22 02:55:35;;;;;;;4.97;3.20;;;12.30;99.90;;;;;;5094975;28;20024;-68
2020/12/22 02:58:01;;;;;;;3.30;2.78;;;12.30;99.90;;;;;;5096389;28;20020;-68
2020/12/22 03:00:27;;;;;;;4.25;3.58;;;12.30;99.90;;;;;;5098197;28;20020;-68
2020/12/22 03:02:53;;;;;;;6.47;3.33;;;12.40;99.90;;;;;;5098179;28;20373;-68
2020/12/22 03:05:18;;;;;;;3.45;3.15;;;12.30;99.90;;;;;;5098135;28;20035;-68
2020/12/22 03:07:44;;;;;;;7.55;3.50;;;12.40;99.90;;;;;;5098087;28;20074;-68
2020/12/22 03:10:13;;;;;;;4.70;3.42;;;12.40;99.90;;;;;;5097757;28;20447;-68
2020/12/22 03:12:39;;;;;;;4.03;3.42;;;12.40;99.90;;;;;;5097969;28;20016;-68
2020/12/22 03:15:06;;;;;;;6.90;3.83;;;12.50;99.90;;;;;;5097922;28;20107;-69
2020/12/22 03:17:32;;;;;;;4.13;3.50;;;12.50;99.90;;;;;;5097843;28;20556;-68
2020/12/22 03:19:58;;;;;;;4.03;3.63;;;12.50;99.90;;;;;;5097731;28;20085;-68
2020/12/22 03:22:23;;;;;;;3.88;3.58;;;12.60;99.90;;;;;;5096028;28;20028;-68
2020/12/22 03:24:49;;;;;;;4.75;3.75;;;12.70;99.90;;;;;;5097401;28;20020;-68
2020/12/22 03:27:14;;;;;;;5.85;3.60;;;12.70;99.90;;;;;;5097385;28;20032;-69
2020/12/22 03:29:40;;;;;;;4.13;3.17;;;12.70;99.90;;;;;;5095824;28;20072;-69
2020/12/22 03:32:06;;;;;;;3.50;3.17;;;12.80;99.90;;;;;;5096295;28;20093;-69
2020/12/22 03:34:31;;;;;;;6.00;2.90;;;12.90;99.90;;;;;;5097270;28;20070;-68
2020/12/22 03:36:58;;;;;;;5.22;2.78;;;13.00;99.90;;;;;;5097516;28;20028;-68
2020/12/22 03:39:23;;;;;;;3.50;2.53;;;13.00;99.90;;;;;;5096723;28;20039;-66
2020/12/22 03:41:49;;;;;;;3.20;1.88;;;13.20;99.90;;;;;;5097372;28;20021;-68
2020/12/22 03:44:14;;;;;;;2.47;1.90;;;13.20;99.90;;;;;;5097379;28;20064;-68
2020/12/22 03:46:46;;;;;;;2.00;1.60;;;13.20;99.90;;;;;;5097342;28;20483;-68
2020/12/22 03:49:11;;;;;;;3.13;1.60;;;13.30;99.90;;;;;;5097028;28;20020;-68
2020/12/22 03:51:37;;;;;;;4.78;1.50;;;13.40;99.90;;;;;;5096941;28;20027;-68
2020/12/22 03:54:02;;;;;;;3.72;1.42;;;13.40;99.90;;;;;;5097182;28;20103;-68
2020/12/22 03:56:28;;;;;;;3.42;1.20;;;13.50;99.90;;;;;;5097171;28;20052;-68
2020/12/22 03:58:54;;;;;;;3.58;1.38;;;13.50;99.90;;;;;;5097068;28;20449;-68
2020/12/22 04:01:19;;;;;;;1.83;1.30;;;13.50;99.90;;;;;;5096772;28;20043;-68
2020/12/22 04:03:45;;;;;;;2.60;1.40;;;13.60;99.90;;;;;;5097020;28;20053;-68
2020/12/22 04:06:10;;;;;;;1.42;0.95;;;13.60;99.90;;;;;;5096217;28;20062;-66
2020/12/22 04:08:36;;;;;;;2.95;1.30;;;13.70;99.90;;;;;;5095656;28;20032;-68
2020/12/22 04:11:02;;;;;;;2.85;1.08;;;13.70;99.90;;;;;;5096339;28;20115;-68
2020/12/22 04:13:27;;;;;;;1.40;1.20;;;13.60;99.90;;;;;;5096828;28;20055;-66
2020/12/22 04:15:53;;;;;;;2.63;1.33;;;13.60;99.90;;;;;;5096777;28;20472;-65
2020/12/22 04:18:18;;;;;;;2.75;1.20;;;13.70;99.90;;;;;;5095668;28;20361;-67
2020/12/22 04:20:44;;;;;;;3.95;1.55;;;13.70;99.90;;;;;;5096698;28;20028;-67
2020/12/22 04:23:10;;;;;;;1.88;1.48;;;13.70;99.90;;;;;;5096055;28;20020;-67
2020/12/22 04:25:35;;;;;;;1.83;1.30;;;13.70;99.90;;;;;;5095119;28;20020;-66
2020/12/22 04:28:01;;;;;;;3.15;1.83;;;13.70;99.90;;;;;;5096270;28;20482;-67
2020/12/22 04:30:27;;;;;;;3.30;1.77;;;13.80;99.90;;;;;;5094664;28;20093;-65
2020/12/22 04:32:52;;;;;;;2.65;1.95;;;13.70;99.90;;;;;;5094981;28;20422;-67
2020/12/22 04:35:18;;;;;;;4.40;1.75;;;13.70;99.90;;;;;;5096435;28;20032;-67
2020/12/22 04:37:43;;;;;;;3.22;1.67;;;13.70;99.90;;;;;;5096142;28;20485;-67
2020/12/22 04:40:09;;;;;;;3.75;2.00;;;13.70;99.90;;;;;;5094414;28;20098;-67
2020/12/22 04:42:34;;;;;;;3.20;2.30;;;13.80;99.90;;;;;;5096238;28;20024;-67
2020/12/22 04:45:00;;;;;;;2.20;2.00;;;13.80;99.90;;;;;;5096256;28;20053;-67
2020/12/22 04:47:29;;;;;;;3.08;2.60;;;13.90;99.90;;;;;;5096169;28;20024;-67
2020/12/22 04:50:00;;;;;;;2.80;2.30;;;13.90;99.90;;;;;;5095840;28;20393;-67
2020/12/22 04:52:27;;;;;;;3.22;2.80;;;13.90;99.90;;;;;;5096113;28;20031;-67
2020/12/22 04:54:52;;;;;;;3.53;3.10;;;13.90;99.90;;;;;;5094907;28;20028;-67
2020/12/22 04:57:25;;;;;;;4.30;2.90;;;13.90;99.90;;;;;;5095965;28;20377;-67
2020/12/22 04:59:50;;;;;;;5.10;3.35;;;13.90;99.90;;;;;;5095551;28;20020;-67
2020/12/22 05:02:16;;;;;;;2.55;2.10;;;14.00;99.90;;;;;;5095862;28;20114;-67
2020/12/22 05:04:42;;;;;;;3.10;2.47;;;14.00;99.90;;;;;;5095839;28;20099;-67
2020/12/22 05:07:08;;;;;;;2.85;2.22;;;14.00;99.90;;;;;;5095764;28;20369;-67
2020/12/22 05:09:34;;;;;;;2.85;2.13;;;14.00;99.90;;;;;;5095738;28;20104;-67
2020/12/22 05:11:59;;;;;;;3.85;2.45;;;14.20;99.90;;;;;;5094714;28;20074;-67
2020/12/22 05:14:26;;;;;;;3.53;2.60;;;14.10;99.90;;;;;;5094490;28;20036;-68
2020/12/22 05:16:53;;;;;;;4.63;2.60;;;14.10;99.90;;;;;;5095347;28;20089;-67
2020/12/22 05:19:19;;;;;;;3.13;2.70;;;14.00;99.90;;;;;;5093182;28;20027;-67
2020/12/22 05:21:46;;;;;;;3.20;3.00;;;14.00;99.90;;;;;;5093715;28;20027;-67
2020/12/22 05:24:12;;;;;;;3.97;2.90;;;13.90;99.90;;;;;;5094234;28;20476;-67
2020/12/22 05:26:40;;;;;;;3.95;3.00;;;13.90;99.90;;;;;;5095094;28;20039;-67
2020/12/22 05:29:17;;;;;;;2.65;2.42;;;14.00;99.90;;;;;;5095333;28;20020;-67
2020/12/22 05:31:45;;;;;;;3.63;2.50;;;14.00;99.90;;;;;;5094795;28;20031;-67
2020/12/22 05:34:12;;;;;;;4.07;2.85;;;14.10;99.90;;;;;;5093479;28;20389;-67
2020/12/22 05:36:39;;;;;;;2.67;2.00;;;14.10;99.90;;;;;;5095209;28;20020;-67
2020/12/22 05:39:11;;;;;;;3.13;2.22;;;14.10;99.90;;;;;;5093219;28;20135;-67
2020/12/22 05:41:37;;;;;;;3.88;2.53;;;14.20;99.90;;;;;;5094878;28;20065;-68
2020/12/22 05:44:04;;;;;;;2.53;2.33;;;14.20;99.90;;;;;;5093800;28;20059;-67
2020/12/22 05:46:32;;;;;;;2.15;1.90;;;14.30;99.90;;;;;;5094714;28;20020;-67
2020/12/22 05:49:00;;;;;;;2.60;2.40;;;14.30;99.90;;;;;;5094663;28;20020;-67
2020/12/22 05:51:26;;;;;;;1.88;1.60;;;14.30;99.90;;;;;;5094941;28;20484;-67
2020/12/22 05:53:54;;;;;;;2.28;2.10;;;14.40;99.90;;;;;;5093431;28;20024;-67
2020/12/22 05:56:22;;;;;;;2.10;2.00;;;14.30;99.90;;;;;;5094817;28;20032;-67
2020/12/22 05:58:50;;;;;;;2.28;1.90;;;14.40;99.90;;;;;;5094688;28;20016;-67
2020/12/22 06:01:29;;;;;;;4.45;2.10;;;14.40;99.90;;;;;;5094195;28;20091;-67
2020/12/22 06:03:56;;;;;;;2.88;1.85;;;14.40;99.90;;;;;;5094726;28;20027;-68
2020/12/22 06:06:25;;;;;;;3.22;1.88;;;14.30;99.90;;;;;;5094709;28;20012;-67
2020/12/22 06:08:52;;;;;;;1.60;1.50;;;14.50;99.90;;;;;;5094146;28;20074;-67
2020/12/22 06:11:17;;;;;;;1.90;1.80;;;14.40;99.90;;;;;;5094473;28;20020;-68
2020/12/22 06:13:48;;;;;;;2.20;2.00;;;14.50;99.90;;;;;;5093042;28;20131;-67
2020/12/22 06:16:17;;;;;;;2.40;2.20;;;14.40;99.90;;;;;;5094519;28;20024;-68
2020/12/22 06:18:44;;;;;;;2.53;2.33;;;14.40;99.90;;;;;;5094454;28;20070;-68
2020/12/22 06:21:11;;;;;;;1.90;1.80;;;14.40;99.90;;;;;;5092957;28;20016;-68
2020/12/22 06:23:37;;;;;;;3.42;2.63;;;14.40;99.90;;;;;;5094158;28;20016;-67
2020/12/22 06:26:04;;;;;;;2.58;2.33;;;14.40;99.90;;;;;;5094368;28;20050;-68
2020/12/22 06:28:30;;;;;;;2.42;2.22;;;14.40;99.90;;;;;;5094375;28;20016;-67
2020/12/22 06:30:56;;;;;;;2.63;2.40;;;14.40;99.90;;;;;;5094021;28;20031;-69
2020/12/22 06:33:24;;;;;;;3.08;2.88;;;14.20;99.90;;;;;;5094054;28;20028;-67
2020/12/22 06:36:03;;;;;;;5.05;2.80;;;14.10;99.90;;;;;;5093156;28;20031;-68
2020/12/22 06:38:52;;;;;;;2.70;2.50;;;14.00;99.90;;;;;;5091815;28;20044;-68
2020/12/22 06:44:26;;;;;;;2.88;2.65;;;14.00;99.90;;;;;;5112228;27;20351;-66
2020/12/22 06:46:56;;;;;;;3.35;2.80;;;13.80;99.90;;;;;;5111188;28;20020;-66
2020/12/22 06:52:38;;;;;;;3.60;2.90;;;13.70;99.90;;;;;;5090842;27;20352;-67
2020/12/22 06:55:06;;;;;;;4.20;3.10;;;13.70;99.90;;;;;;5090217;28;20056;-67
2020/12/22 06:57:44;;;;;;;3.85;2.83;;;13.60;99.90;;;;;;5091545;28;20020;-67
2020/12/22 07:00:23;;;;;;;3.50;3.20;;;13.70;99.90;;;;;;5091198;28;20488;-67
2020/12/22 07:02:49;;;;;;;3.65;3.35;;;13.60;99.90;;;;;;5090742;28;20473;-68
2020/12/22 07:05:36;;;;;;;3.80;3.42;;;13.60;99.90;;;;;;5090405;28;20078;-68
2020/12/22 07:08:02;;;;;;;4.07;3.67;;;13.60;99.90;;;;;;5089581;28;20070;-67
2020/12/22 07:10:29;;;;;;;4.10;3.70;;;13.70;99.90;;;;;;5090592;28;20026;-68
2020/12/22 07:12:57;;;;;;;4.35;3.30;;;13.70;99.90;;;;;;5090615;28;20024;-68
2020/12/22 07:15:32;;;;;;;5.40;3.25;;;13.70;99.90;;;;;;5090013;28;20032;-68
2020/12/22 07:18:09;;;;;;;4.65;3.58;;;13.70;99.90;;;;;;5090445;28;20431;-68
2020/12/22 07:20:35;;;;;;;4.07;2.90;;;13.80;99.90;;;;;;5089232;28;20020;-67
2020/12/22 07:23:03;;;;;;;4.80;3.20;;;13.80;99.90;;;;;;5091038;28;20089;-68
2020/12/22 07:25:29;;;;;;;3.35;3.00;;;13.80;99.90;;;;;;5090130;28;20107;-67
2020/12/22 07:27:54;;;;;;;4.00;2.92;;;13.80;99.90;;;;;;5090360;28;20020;-67
2020/12/22 07:30:20;;;;;;;4.10;3.38;;;13.80;99.90;;;;;;5090493;28;20020;-67
2020/12/22 07:32:46;;;;;;;4.95;3.25;;;13.80;99.90;;;;;;5090538;28;20377;-67
2020/12/22 07:35:12;;;;;;;3.78;3.47;;;13.70;99.90;;;;;;5090503;28;20145;-68
2020/12/22 07:37:38;;;;;;;6.38;4.15;;;13.70;99.90;;;;;;5089839;28;20123;-68
2020/12/22 07:40:12;;;;;;;4.97;4.47;;;13.70;99.90;;;;;;5090403;28;20621;-67
2020/12/22 07:42:38;;;;;;;5.78;4.50;;;13.70;99.90;;;;;;5090591;28;20016;-67
2020/12/22 07:45:06;;;;;;;5.07;4.57;;;13.60;99.90;;;;;;5089870;28;20098;-68
2020/12/22 07:47:32;;;;;;;8.05;4.97;;;13.50;99.90;;;;;;5089511;28;20104;-67
2020/12/22 07:50:13;;;;;;;6.35;4.85;;;13.60;99.90;;;;;;5089638;28;20024;-68
2020/12/22 07:52:39;;;;;;;6.53;4.70;;;13.60;99.90;;;;;;5090010;28;20103;-67
2020/12/22 07:55:07;;;;;;;8.27;4.90;;;13.70;99.90;;;;;;5089953;28;20068;-68
2020/12/22 07:57:35;;;;;;;6.68;4.78;;;13.70;99.90;;;;;;5088557;28;20016;-68
2020/12/22 08:00:05;;;;;;;6.68;4.80;;;13.70;99.90;;;;;;5089836;28;20027;-67
2020/12/22 08:02:31;;;;;;;6.05;4.85;;;13.70;99.90;;;;;;5081688;28;20029;-68
2020/12/22 08:04:57;;;;;;;5.28;4.88;;;13.70;99.90;;;;;;5076578;28;20100;-68
2020/12/22 08:07:22;;;;;;;5.65;4.60;;;13.70;99.90;;;;;;5074669;28;20024;-67
2020/12/22 08:09:48;;;;;;;5.38;4.30;;;13.80;99.90;;;;;;5076039;28;20028;-68
2020/12/22 08:12:13;;;;;;;9.20;4.20;;;13.80;99.90;;;;;;5076161;28;20028;-68
2020/12/22 08:14:41;;;;;;;4.85;4.32;;;13.80;99.90;;;;;;5075904;28;20031;-68
2020/12/22 08:17:12;;;;;;;5.47;4.10;;;13.80;99.90;;;;;;5076344;28;20428;-68
2020/12/22 08:19:39;;;;;;;5.13;4.18;;;13.80;99.90;;;;;;5076237;28;20023;-68
2020/12/22 08:22:05;;;;;;;6.75;4.68;;;13.70;99.90;;;;;;5075605;28;20033;-68
2020/12/22 08:24:33;;;;;;;4.78;4.25;;;13.60;99.90;;;;;;5076351;28;20032;-68
2020/12/22 08:27:00;;;;;;;5.80;4.15;;;13.60;99.90;;;;;;5076309;28;20028;-68
2020/12/22 08:29:28;;;;;;;5.05;4.43;;;13.70;99.90;;;;;;5075800;28;20029;-68
2020/12/22 08:31:58;;;;;;;6.00;3.90;;;13.70;99.90;;;;;;5075824;28;20431;-68
2020/12/22 08:34:24;;;;;;;4.45;3.80;;;13.70;99.90;;;;;;5076135;28;20462;-68
2020/12/22 08:36:50;;;;;;;4.20;3.30;;;13.70;99.90;;;;;;5075940;28;20020;-68
2020/12/22 08:39:24;;;;;;;3.85;3.20;;;13.70;99.90;;;;;;5075419;28;20020;-68
2020/12/22 08:41:52;;;;;;;5.35;3.28;;;13.80;99.90;;;;;;5074636;28;20032;-68
2020/12/22 08:44:19;;;;;;;3.83;3.50;;;13.80;99.90;;;;;;5075907;28;20474;-68
2020/12/22 08:46:45;;;;;;;5.05;3.67;;;14.00;99.90;;;;;;5075238;28;20389;-68
2020/12/22 08:49:20;;;;;;;3.58;3.25;;;14.00;99.90;;;;;;5075916;28;20488;-68
2020/12/22 08:51:46;;;;;;;4.43;3.63;;;14.00;99.90;;;;;;5075151;28;20049;-68
2020/12/22 08:54:13;;;;;;;6.53;3.50;;;14.00;99.90;;;;;;5075803;28;20056;-68
2020/12/22 08:56:38;;;;;;;4.22;3.42;;;14.00;99.90;;;;;;5074951;28;20023;-68
2020/12/22 08:59:06;;;;;;;3.50;3.20;;;14.00;99.90;;;;;;5074953;28;20017;-68
2020/12/22 09:01:49;;;;;;;3.80;3.47;;;14.00;99.90;;;;;;5075269;28;20026;-68
2020/12/22 09:04:15;;;;;;;3.60;3.30;;;14.10;99.90;;;;;;5075297;28;20389;-68
2020/12/22 09:06:43;;;;;;;3.97;3.58;;;14.20;99.90;;;;;;5075530;28;20033;-68
2020/12/22 09:09:14;;;;;;;7.38;3.40;;;14.20;99.90;;;;;;5075513;28;20025;-69
2020/12/22 09:11:40;;;;;;;4.10;2.90;;;14.20;99.90;;;;;;5073794;28;20024;-68
2020/12/22 09:14:08;;;;;;;3.97;3.58;;;14.20;99.90;;;;;;5073894;28;20027;-67
2020/12/22 09:16:56;;;;;;;3.47;3.15;;;14.20;99.90;;;;;;5075218;28;20085;-68
2020/12/22 09:19:28;;;;;;;3.90;3.17;;;14.30;99.90;;;;;;5074073;28;20059;-68
2020/12/22 09:22:00;;;;;;;3.78;3.00;;;14.40;99.90;;;;;;5065660;28;20025;-68
2020/12/22 09:24:26;;;;;;;7.00;3.38;;;14.30;99.90;;;;;;5074890;28;20021;-68
2020/12/22 09:27:01;;;;;;;4.50;3.67;;;14.30;99.90;;;;;;5074342;28;20071;-68
2020/12/22 09:29:27;;;;;;;4.90;3.88;;;14.30;99.90;;;;;;5073328;28;20024;-68
2020/12/22 09:31:54;;;;;;;4.53;3.38;;;14.50;99.90;;;;;;5074677;28;20021;-68
2020/12/22 09:34:21;;;;;;;6.38;3.80;;;14.40;99.90;;;;;;5074727;28;20024;-66
2020/12/22 09:36:54;;;;;;;4.60;3.20;;;14.40;99.90;;;;;;5073132;28;20020;-68
2020/12/22 09:39:20;;;;;;;;;;;14.40;99.90;;;;;;5075095;28;20028;-68
2020/12/22 09:41:46;;;;;;;4.13;2.22;;;14.50;99.90;;;;;;5073839;28;20265;-66
2020/12/22 09:44:12;;;;;;;3.17;2.60;;;14.60;99.90;;;;;;5074640;28;20091;-67
2020/12/22 09:46:38;;;;;;;2.80;2.45;;;15.00;99.90;;;;;;5074721;28;20024;-68
2020/12/22 09:49:04;;;;;;;3.10;2.80;;;15.00;99.90;;;;;;5074744;28;20024;-68
2020/12/22 09:51:30;;;;;;;3.58;2.67;;;14.80;99.90;;;;;;5072541;28;20554;-68
2020/12/22 09:53:55;;;;;;;4.32;2.88;;;14.60;99.90;;;;;;5072615;28;20029;-68
2020/12/22 09:56:21;;;;;;;2.85;2.50;;;14.50;99.90;;;;;;5074305;28;20440;-67
2020/12/22 09:58:46;;;;;;;3.78;3.47;;;14.40;99.90;;;;;;5074500;28;20056;-68
2020/12/22 10:01:12;;;;;;;7.32;3.03;;;14.50;99.90;;;;;;5073295;28;20032;-68
2020/12/22 10:03:38;;;;;;;3.72;3.15;;;14.40;99.90;;;;;;5073985;28;20069;-68
2020/12/22 10:06:03;;;;;;;4.53;3.47;;;14.30;99.90;;;;;;5073555;28;20033;-68
2020/12/22 10:08:29;;;;;;;5.53;3.13;;;14.20;99.90;;;;;;5072026;28;20071;-68
2020/12/22 10:10:54;;;;;;;4.32;3.22;;;14.20;99.90;;;;;;5073183;28;20034;-68
2020/12/22 10:13:20;;;;;;;4.50;3.38;;;14.30;99.90;;;;;;5074208;28;20025;-68
2020/12/22 10:15:45;;;;;;;4.57;3.58;;;14.30;99.90;;;;;;5073410;28;20027;-68
2020/12/22 10:18:11;;;;;;;10.88;4.00;;;14.30;99.90;;;;;;5073894;28;20107;-68
2020/12/22 10:20:37;;;;;;;4.43;3.45;;;15.10;99.90;;;;;;5073643;28;20047;-68
2020/12/22 10:23:04;;;;;;;4.32;2.90;;;15.80;99.90;;;;;;5074120;28;20528;-68
2020/12/22 10:25:30;;;;;;;4.50;2.25;;;16.80;99.90;;;;;;5072107;28;20067;-68
2020/12/22 10:27:56;;;;;;;3.72;2.30;;;16.60;99.90;;;;;;5072404;28;20028;-68
2020/12/22 10:30:22;;;;;;;6.68;2.83;;;16.50;99.90;;;;;;5073194;28;20036;-66
2020/12/22 10:32:48;;;;;;;3.70;2.22;;;16.80;99.90;;;;;;5073953;28;20078;-66
2020/12/22 10:35:13;;;;;;;4.93;1.90;;;17.00;99.90;;;;;;5072558;28;20055;-66
2020/12/22 10:37:39;;;;;;;4.10;1.92;;;16.50;99.90;;;;;;5073142;28;20032;-67
2020/12/22 10:40:05;;;;;;;4.93;1.88;;;16.50;99.90;;;;;;5073200;28;20036;-67
2020/12/22 10:42:30;;;;;;;3.13;1.63;;;16.90;99.90;;;;;;5073990;28;20050;-67
2020/12/22 10:44:56;;;;;;;3.17;1.73;;;17.10;99.90;;;;;;5072470;28;20470;-67
2020/12/22 10:47:21;;;;;;;4.13;1.52;;;16.60;99.90;;;;;;5073910;28;20028;-66
2020/12/22 10:49:48;;;;;;;3.47;1.50;;;16.90;99.90;;;;;;5073652;28;20028;-67
2020/12/22 10:52:14;;;;;;;2.97;1.70;;;17.50;99.90;;;;;;5073161;28;20447;-67
2020/12/22 10:54:39;;;;;;;3.10;1.33;;;17.30;99.90;;;;;;5073896;28;20445;-67
2020/12/22 10:57:05;;;;;;;3.72;1.50;;;16.80;99.90;;;;;;5071891;28;20040;-67
2020/12/22 10:59:30;;;;;;;2.38;1.73;;;16.20;99.90;;;;;;5073533;28;20373;-67
2020/12/22 11:01:58;;;;;;;2.38;1.40;;;15.90;99.90;;;;;;5072791;28;20452;-66
2020/12/22 11:04:24;;;;;;;3.15;1.38;;;16.40;99.90;;;;;;5073148;28;20428;-67
2020/12/22 11:07:16;;;;;;;4.45;1.15;;;16.60;99.90;;;;;;5073629;28;20103;-67
2020/12/22 11:09:38;;;;;;;3.08;1.20;;;17.10;99.90;;;;;;5072987;28;20029;-67
2020/12/22 11:12:04;;;;;;;4.07;1.35;;;16.40;99.90;;;;;;5072643;28;20098;-67
2020/12/22 11:14:29;;;;;;;2.70;1.40;;;16.20;99.90;;;;;;5072796;28;20028;-67
2020/12/22 11:16:55;;;;;;;4.20;1.40;;;15.90;99.90;;;;;;5073482;28;20111;-67
2020/12/22 11:19:21;;;;;;;2.25;1.38;;;15.70;99.90;;;;;;5072679;28;20036;-67
2020/12/22 11:21:46;;;;;;;4.30;1.63;;;15.40;99.90;;;;;;5072383;28;20032;-67
2020/12/22 11:24:12;;;;;;;3.70;1.88;;;15.20;99.90;;;;;;5073449;28;20054;-67
2020/12/22 11:26:37;;;;;;;4.38;1.60;;;15.00;99.90;;;;;;5072386;28;20037;-66
2020/12/22 11:29:04;;;;;;;2.83;1.60;;;15.00;99.90;;;;;;5072613;28;20031;-67
2020/12/22 11:31:29;;;;;;;3.05;1.65;;;15.30;99.90;;;;;;5072347;28;20019;-67
2020/12/22 11:33:55;;;;;;;2.70;1.35;;;15.50;99.90;;;;;;5054410;28;20029;-67
2020/12/22 11:36:21;;;;;;;4.15;1.85;;;15.50;99.90;;;;;;5072385;28;20470;-67
2020/12/22 11:38:47;;;;;;;5.78;2.22;;;15.70;99.90;;;;;;5075469;28;20381;-67
2020/12/22 11:41:19;;;;;;;3.85;2.00;;;15.60;99.90;;;;;;5076226;28;20025;-67
2020/12/22 11:43:44;;;;;;;3.58;1.88;;;15.50;99.90;;;;;;5076089;28;20020;-66
2020/12/22 11:46:10;;;;;;;7.00;2.10;;;15.30;99.90;;;;;;5076174;28;20473;-67
2020/12/22 11:48:36;;;;;;;4.30;2.00;;;15.40;99.90;;;;;;5076087;28;20522;-67
2020/12/22 11:51:02;;;;;;;5.70;2.28;;;15.30;99.90;;;;;;5074701;28;20048;-67
2020/12/22 11:53:28;;;;;;;5.25;2.42;;;15.30;99.90;;;;;;5074949;28;20044;-67
2020/12/22 11:55:53;;;;;;;5.57;2.40;;;15.20;99.90;;;;;;5076318;28;20029;-67
2020/12/22 11:58:19;;;;;;;6.10;2.60;;;15.10;99.90;;;;;;5076520;28;20024;-67
2020/12/22 12:00:45;;;;;;;8.52;1.98;;;15.00;99.90;;;;;;5075526;28;20078;-67
2020/12/22 12:03:11;;;;;;;6.00;2.42;;;15.00;99.90;;;;;;5074686;28;20089;-67
2020/12/22 12:05:36;;;;;;;6.18;2.17;;;15.10;99.90;;;;;;5074772;28;20067;-67
2020/12/22 12:08:02;;;;;;;5.03;2.17;;;15.10;99.90;;;;;;5076092;28;20108;-68
2020/12/22 12:10:28;;;;;;;9.80;2.33;;;15.10;99.90;;;;;;5075842;28;20028;-67
2020/12/22 12:12:53;;;;;;;6.63;1.90;;;15.00;99.90;;;;;;5074532;28;20028;-67
2020/12/22 12:15:19;;;;;;;3.55;1.77;;;14.90;99.90;;;;;;5074367;28;20119;-67
2020/12/22 12:17:44;;;;;;;6.00;1.95;;;15.00;99.90;;;;;;5074649;28;20039;-67
2020/12/22 12:20:10;;;;;;;3.70;1.88;;;14.90;99.90;;;;;;5076192;28;20060;-67
2020/12/22 12:22:35;;;;;;;4.70;1.50;;;14.90;99.90;;;;;;5076280;28;20374;-67
2020/12/22 12:25:02;;;;;;;2.83;1.55;;;14.90;99.90;;;;;;5076307;28;20070;-67
2020/12/22 12:27:27;;;;;;;6.22;1.98;;;15.10;99.90;;;;;;5076318;28;20052;-68
2020/12/22 12:29:53;;;;;;;7.35;1.70;;;15.10;99.90;;;;;;5076196;28;20027;-67
2020/12/22 12:32:19;;;;;;;4.03;1.50;;;15.10;99.90;;;;;;5074327;28;20074;-67
2020/12/22 12:34:44;;;;;;;3.50;1.95;;;15.10;99.90;;;;;;5075020;28;20404;-67
2020/12/22 12:37:10;;;;;;;4.13;1.55;;;14.90;99.90;;;;;;5075355;28;20031;-67
2020/12/22 12:39:36;;;;;;;5.05;1.70;;;14.90;99.90;;;;;;5073822;28;20027;-67
2020/12/22 12:42:01;;;;;;;6.30;1.75;;;14.90;99.90;;;;;;5074729;28;20428;-67
2020/12/22 12:44:27;;;;;;;2.28;1.70;;;15.00;99.90;;;;;;5070556;28;20032;-67
2020/12/22 12:46:52;;;;;;;3.47;1.58;;;15.00;99.90;;;;;;5075837;28;20059;-67
2020/12/22 12:49:19;;;;;;;2.50;1.40;;;14.90;99.90;;;;;;5075372;28;20043;-67
2020/12/22 12:51:45;;;;;;;2.10;1.35;;;15.10;99.90;;;;;;5074702;28;20225;-67